Terminal Aerodrome Forecast
Issued by NWS

Home | Current Version | Previous Version | Graphics & Text | Print | Product List | Glossary On
Versions: 1 2 3 4 5 6 7 8 9 10 11 12
563
FTUS43 KMPX 191741
TAFRNH
TAF
KRNH 191741Z 1918/2018 35010G15KT P6SM BKN030
     FM191900 35010KT P6SM FEW030
     FM192300 35007KT P6SM FEW050 SCT250
     FM200900 04002KT P6SM BKN250
     FM201500 25005KT P6SM OVC120=

USA.gov is the U.S. government's official web portal to all federal, state and local government web resources and services.